createdAt,value
2023-01-08T00:02:21.676Z,96.67
2023-01-08T00:06:27.749Z,95.78
2023-01-08T00:10:33.512Z,96.51
2023-01-08T00:14:42.278Z,96.48
2023-01-08T00:18:46.322Z,96.33
2023-01-08T00:22:51.878Z,96.17
2023-01-08T00:26:56.583Z,96.51
2023-01-08T00:31:05.675Z,96.26
2023-01-08T00:35:10.402Z,95.91
2023-01-08T00:39:19.262Z,96.43
2023-01-08T00:43:36.729Z,96.10
2023-01-08T00:47:41.620Z,96.16
2023-01-08T00:51:45.394Z,96.54
2023-01-08T00:55:53.473Z,96.36
2023-01-08T00:59:57.007Z,96.91
2023-01-08T01:04:06.095Z,96.00
2023-01-08T01:08:10.116Z,95.44
2023-01-08T01:12:13.960Z,96.82
2023-01-08T01:16:18.863Z,96.12
2023-01-08T01:20:29.091Z,95.98
2023-01-08T01:24:32.734Z,97.03
2023-01-08T01:28:36.689Z,96.34
2023-01-08T01:32:39.631Z,96.79
2023-01-08T01:36:51.240Z,96.74
2023-01-08T01:40:55.257Z,96.71
2023-01-08T01:44:58.800Z,96.69
2023-01-08T01:49:07.425Z,96.84
2023-01-08T01:53:14.500Z,97.33
2023-01-08T01:57:18.581Z,97.41
2023-01-08T02:01:31.395Z,97.11
2023-01-08T02:05:42.995Z,97.39
2023-01-08T02:09:51.670Z,96.43
2023-01-08T02:13:59.867Z,96.19
2023-01-08T02:18:09.052Z,97.46
2023-01-08T02:22:20.803Z,97.11
2023-01-08T02:26:30.323Z,97.24
2023-01-08T02:30:34.854Z,97.71
2023-01-08T02:34:39.442Z,96.43
2023-01-08T02:38:54.262Z,96.85
2023-01-08T02:43:07.055Z,97.57
2023-01-08T02:47:15.427Z,97.48
2023-01-08T02:51:24.290Z,97.62
2023-01-08T02:55:29.967Z,96.97
2023-01-08T02:59:40.335Z,97.11
2023-01-08T03:03:47.797Z,96.92
2023-01-08T03:07:55.319Z,96.75
2023-01-08T03:12:07.537Z,96.64
2023-01-08T03:16:14.266Z,96.76
2023-01-08T03:20:19.959Z,95.95
2023-01-08T03:24:28.463Z,97.36
2023-01-08T03:28:38.854Z,96.67
2023-01-08T03:32:49.061Z,96.59
2023-01-08T03:36:53.907Z,96.95
2023-01-08T03:41:00.563Z,97.53
2023-01-08T03:45:04.647Z,97.53
2023-01-08T03:49:13.375Z,97.01
2023-01-08T03:53:20.103Z,97.05
2023-01-08T03:57:24.323Z,96.54
2023-01-08T04:01:27.996Z,96.41
2023-01-08T04:05:40.417Z,96.55
2023-01-08T04:09:55.351Z,97.25
2023-01-08T04:13:59.418Z,96.51
2023-01-08T04:18:02.909Z,96.72
2023-01-08T04:22:11.639Z,96.39
2023-01-08T04:26:15.552Z,97.01
2023-01-08T04:30:21.543Z,97.46
2023-01-08T04:34:26.237Z,97.44
2023-01-08T04:38:32.741Z,97.57
2023-01-08T04:42:39.465Z,97.37
2023-01-08T04:46:43.837Z,97.28
2023-01-08T04:50:49.131Z,96.86
2023-01-08T04:54:56.839Z,96.53
2023-01-08T04:59:01.014Z,96.39
2023-01-08T05:03:05.480Z,96.41
2023-01-08T05:07:09.863Z,97.18
2023-01-08T05:11:15.044Z,96.85
2023-01-08T05:15:18.906Z,97.10
2023-01-08T05:19:23.237Z,97.38
2023-01-08T05:23:27.512Z,95.90
2023-01-08T05:27:50.351Z,97.21
2023-01-08T05:31:53.889Z,96.72
2023-01-08T05:35:57.834Z,96.74
2023-01-08T05:40:03.405Z,97.24
2023-01-08T05:44:08.489Z,96.36
2023-01-08T05:48:12.325Z,96.71
2023-01-08T05:52:19.011Z,97.06
2023-01-08T05:56:23.016Z,96.97
2023-01-08T06:00:28.999Z,96.89
2023-01-08T06:04:31.798Z,95.69
2023-01-08T06:08:35.430Z,96.19
2023-01-08T06:12:40.153Z,96.70
2023-01-08T06:16:48.815Z,96.41
2023-01-08T06:20:52.883Z,96.21
2023-01-08T06:24:56.472Z,96.79
2023-01-08T06:29:00.710Z,96.37
2023-01-08T06:33:15.121Z,96.51
2023-01-08T06:37:22.454Z,96.54
2023-01-08T06:41:26.214Z,96.49
2023-01-08T06:45:29.927Z,96.66
2023-01-08T06:49:34.596Z,96.99
2023-01-08T06:53:49.705Z,97.06
2023-01-08T06:57:56.666Z,96.62
2023-01-08T07:02:00.368Z,97.28
2023-01-08T07:06:06.912Z,97.14
2023-01-08T07:10:11.762Z,97.00
2023-01-08T07:14:16.272Z,96.43
2023-01-08T07:18:19.217Z,97.17
2023-01-08T07:22:27.774Z,97.37
2023-01-08T07:26:35.187Z,96.93
2023-01-08T07:30:39.064Z,96.85
2023-01-08T07:34:43.526Z,97.38
2023-01-08T07:38:55.071Z,97.42
2023-01-08T07:43:06.766Z,97.61
2023-01-08T07:47:15.543Z,97.67
2023-01-08T07:51:28.529Z,97.58
2023-01-08T07:55:35.332Z,96.99
2023-01-08T07:59:41.358Z,97.88
2023-01-08T08:03:47.526Z,97.18
2023-01-08T08:08:07.706Z,96.75
2023-01-08T08:12:18.020Z,97.04
2023-01-08T08:16:27.087Z,96.81
2023-01-08T08:20:32.401Z,97.34
2023-01-08T08:24:37.669Z,97.63
2023-01-08T08:28:47.531Z,96.22
2023-01-08T08:32:59.998Z,97.07
2023-01-08T08:37:10.808Z,96.94
2023-01-08T08:41:15.367Z,96.51
2023-01-08T08:45:26.389Z,97.44
2023-01-08T08:49:31.429Z,97.24
2023-01-08T08:53:38.371Z,97.04
2023-01-08T08:57:44.025Z,96.13
2023-01-08T09:01:51.555Z,96.50
2023-01-08T09:06:07.685Z,96.53
2023-01-08T09:10:13.135Z,96.50
2023-01-08T09:14:23.620Z,97.08
2023-01-08T09:18:32.754Z,96.91
2023-01-08T09:22:43.193Z,96.76
2023-01-08T09:26:51.648Z,96.01
2023-01-08T09:31:02.541Z,96.35
2023-01-08T09:35:11.533Z,95.69
2023-01-08T09:39:18.486Z,95.51
2023-01-08T09:43:26.865Z,95.93
2023-01-08T09:47:36.203Z,95.05
2023-01-08T09:51:42.031Z,96.00
2023-01-08T09:56:09.183Z,95.86
2023-01-08T10:00:17.965Z,96.01
2023-01-08T10:04:23.504Z,96.39
2023-01-08T10:08:35.695Z,96.55
2023-01-08T10:12:41.695Z,95.73
2023-01-08T10:16:46.630Z,95.33
2023-01-08T10:20:53.948Z,95.99
2023-01-08T10:25:10.558Z,96.79
2023-01-08T10:29:21.021Z,96.79
2023-01-08T10:33:28.219Z,95.65
2023-01-08T10:37:39.821Z,95.80
2023-01-08T10:41:45.873Z,96.11
2023-01-08T10:45:58.510Z,96.24
2023-01-08T10:50:06.229Z,95.71
2023-01-08T10:54:28.355Z,94.83
2023-01-08T10:58:43.817Z,96.07
2023-01-08T11:02:51.655Z,94.69
2023-01-08T11:07:00.230Z,94.67
2023-01-08T11:15:41.180Z,94.76
2023-01-08T11:19:45.876Z,94.97
2023-01-08T11:23:52.615Z,94.94
2023-01-08T11:28:01.102Z,93.97
2023-01-08T11:32:15.509Z,94.08
2023-01-08T11:36:26.353Z,93.97
2023-01-08T11:40:39.924Z,93.42
2023-01-08T11:44:59.267Z,93.65
2023-01-08T11:49:28.817Z,92.87
2023-01-08T11:53:40.069Z,94.04
2023-01-08T11:57:53.625Z,93.81
2023-01-08T12:02:18.404Z,92.20
2023-01-08T12:06:40.526Z,92.54
2023-01-08T12:10:54.726Z,92.97
2023-01-08T12:15:11.609Z,91.98
2023-01-08T12:19:25.570Z,91.97
2023-01-08T12:23:46.096Z,92.50
2023-01-08T12:27:57.688Z,91.27
2023-01-08T12:32:20.115Z,90.51
2023-01-08T12:36:26.469Z,90.18
2023-01-08T12:40:34.405Z,91.28
2023-01-08T12:44:39.338Z,91.21
2023-01-08T12:48:42.395Z,91.14
2023-01-08T12:52:49.994Z,90.47
2023-01-08T12:56:57.226Z,91.60
2023-01-08T13:01:12.090Z,90.01
2023-01-08T13:05:30.942Z,90.87
2023-01-08T13:09:34.228Z,89.76
2023-01-08T13:13:44.621Z,89.51
2023-01-08T13:17:50.201Z,90.19
2023-01-08T13:21:54.140Z,88.03
2023-01-08T13:25:57.240Z,89.16
2023-01-08T13:30:02.082Z,89.58
2023-01-08T13:34:21.199Z,88.55
2023-01-08T13:38:23.876Z,85.95
2023-01-08T13:42:28.568Z,86.83
2023-01-08T13:46:34.720Z,87.10
2023-01-08T13:50:38.505Z,88.17
2023-01-08T13:54:43.755Z,87.46
2023-01-08T13:58:53.025Z,85.47
2023-01-08T14:02:59.994Z,86.99
2023-01-08T14:07:15.249Z,86.04
2023-01-08T14:11:19.813Z,86.50
2023-01-08T14:15:25.240Z,86.78
2023-01-08T14:19:29.622Z,87.64
2023-01-08T14:23:36.543Z,87.61
2023-01-08T14:27:40.813Z,88.35
2023-01-08T14:31:47.793Z,88.53
2023-01-08T14:35:55.091Z,88.37
2023-01-08T14:39:57.753Z,88.24
2023-01-08T14:44:00.436Z,87.88
2023-01-08T14:48:12.197Z,87.16
2023-01-08T14:52:20.069Z,88.74
2023-01-08T14:56:25.097Z,87.74
2023-01-08T15:00:29.813Z,87.94
2023-01-08T15:04:32.887Z,87.02
2023-01-08T15:08:38.879Z,87.49
2023-01-08T15:12:43.656Z,86.37
2023-01-08T15:16:47.669Z,88.23
2023-01-08T15:20:50.680Z,88.58
2023-01-08T15:24:59.254Z,88.53
2023-01-08T15:29:05.834Z,88.08
2023-01-08T15:33:21.001Z,87.37
2023-01-08T15:37:27.150Z,88.44
2023-01-08T15:41:54.550Z,87.92
2023-01-08T15:45:57.373Z,88.92
2023-01-08T15:50:06.680Z,88.25
2023-01-08T15:54:12.333Z,88.68
2023-01-08T15:58:17.481Z,88.64
2023-01-08T16:02:22.800Z,89.21
2023-01-08T16:06:25.912Z,90.27
2023-01-08T16:10:30.546Z,89.69
2023-01-08T16:14:38.529Z,90.45
2023-01-08T16:18:44.377Z,89.46
2023-01-08T16:28:14.536Z,89.28
2023-01-08T16:32:20.157Z,89.41
2023-01-08T16:36:33.393Z,90.52
2023-01-08T16:40:38.823Z,89.96
2023-01-08T16:44:44.387Z,89.85
2023-01-08T16:49:01.545Z,90.51
2023-01-08T16:53:08.230Z,90.41
2023-01-08T16:57:18.273Z,90.17
2023-01-08T17:01:22.354Z,90.89
2023-01-08T17:05:30.709Z,91.19
2023-01-08T17:09:35.028Z,91.69
2023-01-08T17:13:48.341Z,91.80
2023-01-08T17:17:51.652Z,91.50
2023-01-08T17:21:57.244Z,92.17
2023-01-08T17:26:17.352Z,93.49
2023-01-08T17:30:22.363Z,93.69
2023-01-08T17:34:26.832Z,93.85
2023-01-08T17:38:40.821Z,93.48
2023-01-08T17:42:48.238Z,94.85
2023-01-08T17:46:51.880Z,94.39
2023-01-08T17:55:29.429Z,94.40
2023-01-08T17:59:33.853Z,94.34
2023-01-08T18:03:40.095Z,94.50
2023-01-08T18:07:53.123Z,94.91
2023-01-08T18:11:58.855Z,95.76
2023-01-08T18:16:07.686Z,95.60
2023-01-08T18:20:15.509Z,94.86
2023-01-08T18:24:23.673Z,94.91
2023-01-08T18:28:28.336Z,95.54
2023-01-08T18:32:32.794Z,95.82
2023-01-08T18:36:37.623Z,96.17
2023-01-08T18:40:44.314Z,95.79
2023-01-08T18:44:57.137Z,96.08
2023-01-08T18:49:01.073Z,96.33
2023-01-08T18:53:10.947Z,97.32
2023-01-08T18:57:18.304Z,96.56
2023-01-08T19:01:25.125Z,96.09
2023-01-08T19:05:33.158Z,95.70
2023-01-08T19:09:36.294Z,96.26
2023-01-08T19:13:40.854Z,96.39
2023-01-08T19:17:47.541Z,96.73
2023-01-08T19:21:51.785Z,96.19
2023-01-08T19:25:58.778Z,97.24
2023-01-08T19:30:03.133Z,97.04
2023-01-08T19:34:12.560Z,97.36
2023-01-08T19:38:17.527Z,97.18
2023-01-08T19:42:38.933Z,97.44
2023-01-08T19:46:51.868Z,96.96
2023-01-08T19:51:02.378Z,97.51
2023-01-08T19:55:05.787Z,97.28
2023-01-08T19:59:10.626Z,96.90
2023-01-08T20:03:14.715Z,97.12
2023-01-08T20:07:20.680Z,96.82
2023-01-08T20:11:28.439Z,97.05
2023-01-08T20:15:32.741Z,96.62
2023-01-08T20:19:36.732Z,96.92
2023-01-08T20:23:45.057Z,96.38
2023-01-08T20:27:57.724Z,97.12
2023-01-08T20:32:07.553Z,97.37
2023-01-08T20:36:12.359Z,97.97
2023-01-08T20:40:30.463Z,97.09
2023-01-08T20:44:35.368Z,96.98
2023-01-08T20:48:48.333Z,97.54
2023-01-08T20:52:51.958Z,97.95
2023-01-08T20:56:59.680Z,97.27
2023-01-08T21:01:09.881Z,97.13
2023-01-08T21:05:13.636Z,97.04
2023-01-08T21:09:17.880Z,97.65
2023-01-08T21:13:23.283Z,97.66
2023-01-08T21:17:26.241Z,96.97
2023-01-08T21:21:33.090Z,97.53
2023-01-08T21:25:40.027Z,97.78
2023-01-08T21:29:49.653Z,97.93
2023-01-08T21:33:53.992Z,98.03
2023-01-08T21:37:58.023Z,98.01
2023-01-08T21:42:21.607Z,98.09
2023-01-08T21:46:29.812Z,97.08
2023-01-08T21:50:34.754Z,96.95
2023-01-08T21:54:39.878Z,97.96
2023-01-08T21:58:46.645Z,97.62
2023-01-08T22:02:56.486Z,97.46
2023-01-08T22:07:02.787Z,97.46
2023-01-08T22:11:10.366Z,97.12
2023-01-08T22:15:20.400Z,97.82
2023-01-08T22:19:29.478Z,98.48
2023-01-08T22:23:34.153Z,97.92
2023-01-08T22:27:37.605Z,97.00
2023-01-08T22:31:41.860Z,96.71
2023-01-08T22:35:50.780Z,96.95
2023-01-08T22:40:01.412Z,95.59
2023-01-08T22:44:13.482Z,95.08
2023-01-08T22:48:20.020Z,96.19
2023-01-08T22:52:37.005Z,96.44
2023-01-08T22:56:42.564Z,96.40
2023-01-08T23:00:50.177Z,96.39
2023-01-08T23:05:15.734Z,96.16
2023-01-08T23:09:28.740Z,96.42
2023-01-08T23:13:34.336Z,96.43
2023-01-08T23:17:52.209Z,95.88
2023-01-08T23:21:57.755Z,96.08
2023-01-08T23:26:10.747Z,95.88
2023-01-08T23:30:17.615Z,96.61
2023-01-08T23:34:41.464Z,96.60
2023-01-08T23:38:51.940Z,96.76
2023-01-08T23:43:01.268Z,96.52
2023-01-08T23:47:06.627Z,96.35
2023-01-08T23:51:16.744Z,97.25
2023-01-08T23:55:26.079Z,97.45
2023-01-08T23:59:36.109Z,96.82
